sensor_id;sensor_type;location;lat;lon;timestamp;P1;durP1;ratioP1;P2;durP2;ratioP2
80868;SDS011;70295;40.182;44.498;2023-05-31T00:00:55;14.3;;;7.7;;
80868;SDS011;70295;40.182;44.498;2023-05-31T00:01:55;11.5;;;6.7;;
80868;SDS011;70295;40.182;44.498;2023-05-31T00:04:35;12.7;;;7.4;;
80868;SDS011;70295;40.182;44.498;2023-05-31T00:06:25;13.6;;;6.8;;
80868;SDS011;70295;40.182;44.498;2023-05-31T00:07:25;9.9;;;6;;
80868;SDS011;70295;40.182;44.498;2023-05-31T00:08:25;13.1;;;6.5;;
80868;SDS011;70295;40.182;44.498;2023-05-31T00:09:25;10.5;;;5.7;;
80868;SDS011;70295;40.182;44.498;2023-05-31T00:10:25;12.7;;;6.2;;
80868;SDS011;70295;40.182;44.498;2023-05-31T00:11:25;11.8;;;7.1;;
80868;SDS011;70295;40.182;44.498;2023-05-31T00:12:25;12.7;;;6.1;;
80868;SDS011;70295;40.182;44.498;2023-05-31T00:13:25;11.4;;;5.8;;
80868;SDS011;70295;40.182;44.498;2023-05-31T00:14:25;9.7;;;5.9;;
80868;SDS011;70295;40.182;44.498;2023-05-31T00:15:25;10.4;;;6.6;;
80868;SDS011;70295;40.182;44.498;2023-05-31T00:16:25;10.9;;;6.7;;
80868;SDS011;70295;40.182;44.498;2023-05-31T00:17:25;11.9;;;6.4;;
80868;SDS011;70295;40.182;44.498;2023-05-31T00:18:25;12.5;;;7;;
80868;SDS011;70295;40.182;44.498;2023-05-31T00:19:25;16.1;;;7.2;;
80868;SDS011;70295;40.182;44.498;2023-05-31T00:20:25;14;;;7.5;;
80868;SDS011;70295;40.182;44.498;2023-05-31T00:21:25;13.1;;;7.3;;
80868;SDS011;70295;40.182;44.498;2023-05-31T00:22:25;12.1;;;6.6;;
80868;SDS011;70295;40.182;44.498;2023-05-31T00:23:25;13.2;;;7.3;;
80868;SDS011;70295;40.182;44.498;2023-05-31T00:24:25;11.9;;;7;;
80868;SDS011;70295;40.182;44.498;2023-05-31T00:25:26;13.7;;;7.5;;
80868;SDS011;70295;40.182;44.498;2023-05-31T00:26:25;14.2;;;6.9;;
80868;SDS011;70295;40.182;44.498;2023-05-31T00:27:25;12.4;;;6.7;;
80868;SDS011;70295;40.182;44.498;2023-05-31T00:28:25;13.2;;;6.9;;
80868;SDS011;70295;40.182;44.498;2023-05-31T00:29:25;12.4;;;6.7;;
80868;SDS011;70295;40.182;44.498;2023-05-31T00:30:25;12.8;;;6.9;;
80868;SDS011;70295;40.182;44.498;2023-05-31T00:31:25;12;;;6.3;;
80868;SDS011;70295;40.182;44.498;2023-05-31T00:32:25;13.4;;;7;;
80868;SDS011;70295;40.182;44.498;2023-05-31T00:33:25;12.6;;;6.4;;
80868;SDS011;70295;40.182;44.498;2023-05-31T00:34:25;13;;;6.4;;
80868;SDS011;70295;40.182;44.498;2023-05-31T00:35:25;11.1;;;6.3;;
80868;SDS011;70295;40.182;44.498;2023-05-31T00:36:25;12.1;;;6.2;;
80868;SDS011;70295;40.182;44.498;2023-05-31T00:37:25;10.8;;;6.4;;
80868;SDS011;70295;40.182;44.498;2023-05-31T00:38:25;13.8;;;6.3;;
80868;SDS011;70295;40.182;44.498;2023-05-31T00:39:25;11.5;;;5.9;;
80868;SDS011;70295;40.182;44.498;2023-05-31T00:40:25;13.1;;;6.8;;
80868;SDS011;70295;40.182;44.498;2023-05-31T00:41:25;11.6;;;6.1;;
80868;SDS011;70295;40.182;44.498;2023-05-31T00:42:25;11.8;;;6.5;;
80868;SDS011;70295;40.182;44.498;2023-05-31T00:43:25;10.1;;;6.5;;
80868;SDS011;70295;40.182;44.498;2023-05-31T00:44:25;10.5;;;6.5;;
80868;SDS011;70295;40.182;44.498;2023-05-31T00:45:25;10.7;;;6.1;;
80868;SDS011;70295;40.182;44.498;2023-05-31T00:47:25;12.3;;;6;;
80868;SDS011;70295;40.182;44.498;2023-05-31T00:48:24;11.9;;;6.4;;
80868;SDS011;70295;40.182;44.498;2023-05-31T00:49:23;10.5;;;6.2;;
80868;SDS011;70295;40.182;44.498;2023-05-31T00:50:24;12.7;;;6.9;;
80868;SDS011;70295;40.182;44.498;2023-05-31T00:51:25;13.9;;;6.7;;
80868;SDS011;70295;40.182;44.498;2023-05-31T00:52:22;12.4;;;6.5;;
80868;SDS011;70295;40.182;44.498;2023-05-31T00:53:22;11.9;;;6.8;;
80868;SDS011;70295;40.182;44.498;2023-05-31T00:54:23;13.6;;;6.7;;
80868;SDS011;70295;40.182;44.498;2023-05-31T00:55:22;11.6;;;7.1;;
80868;SDS011;70295;40.182;44.498;2023-05-31T00:56:21;13.1;;;6.7;;
80868;SDS011;70295;40.182;44.498;2023-05-31T00:57:21;12.4;;;6.6;;
80868;SDS011;70295;40.182;44.498;2023-05-31T00:58:23;12.9;;;7;;
80868;SDS011;70295;40.182;44.498;2023-05-31T00:59:21;12.8;;;6.9;;
80868;SDS011;70295;40.182;44.498;2023-05-31T01:00:21;12.3;;;6.2;;
80868;SDS011;70295;40.182;44.498;2023-05-31T01:01:23;11.9;;;6.3;;
80868;SDS011;70295;40.182;44.498;2023-05-31T01:02:02;11.4;;;6.3;;
80868;SDS011;70295;40.182;44.498;2023-05-31T01:03:02;11.9;;;6;;
80868;SDS011;70295;40.182;44.498;2023-05-31T01:04:01;13.5;;;6.1;;
80868;SDS011;70295;40.182;44.498;2023-05-31T01:05:01;12.2;;;7;;
80868;SDS011;70295;40.182;44.498;2023-05-31T01:06:02;12.5;;;6.7;;
80868;SDS011;70295;40.182;44.498;2023-05-31T01:07:01;12.5;;;5.6;;
80868;SDS011;70295;40.182;44.498;2023-05-31T01:08:02;11.1;;;5.7;;
80868;SDS011;70295;40.182;44.498;2023-05-31T01:10:45;9.3;;;5.3;;
80868;SDS011;70295;40.182;44.498;2023-05-31T01:18:13;8.9;;;5.2;;
80868;SDS011;70295;40.182;44.498;2023-05-31T01:20:57;9.7;;;4.7;;
80868;SDS011;70295;40.182;44.498;2023-05-31T01:27:33;7.7;;;4.4;;
80868;SDS011;70295;40.182;44.498;2023-05-31T01:28:36;7.4;;;4;;
80868;SDS011;70295;40.182;44.498;2023-05-31T01:29:34;9.1;;;4.1;;
80868;SDS011;70295;40.182;44.498;2023-05-31T01:30:25;8.4;;;5.1;;
80868;SDS011;70295;40.182;44.498;2023-05-31T01:31:27;10.9;;;5.1;;
80868;SDS011;70295;40.182;44.498;2023-05-31T01:32:03;11.7;;;5.1;;
80868;SDS011;70295;40.182;44.498;2023-05-31T01:34:04;10;;;5.1;;
80868;SDS011;70295;40.182;44.498;2023-05-31T01:35:03;9.9;;;4.8;;
80868;SDS011;70295;40.182;44.498;2023-05-31T01:36:03;10.1;;;5.2;;
80868;SDS011;70295;40.182;44.498;2023-05-31T01:37:03;8.9;;;4.8;;
80868;SDS011;70295;40.182;44.498;2023-05-31T01:38:03;9;;;4.7;;
80868;SDS011;70295;40.182;44.498;2023-05-31T01:39:03;10.7;;;5.1;;
80868;SDS011;70295;40.182;44.498;2023-05-31T01:40:03;11.8;;;4.8;;
80868;SDS011;70295;40.182;44.498;2023-05-31T01:41:04;8.5;;;4.8;;
80868;SDS011;70295;40.182;44.498;2023-05-31T01:42:43;10;;;4.6;;
80868;SDS011;70295;40.182;44.498;2023-05-31T01:43:44;9.1;;;4.4;;
80868;SDS011;70295;40.182;44.498;2023-05-31T01:44:27;8.7;;;4.7;;
80868;SDS011;70295;40.182;44.498;2023-05-31T01:45:27;8.6;;;4.8;;
80868;SDS011;70295;40.182;44.498;2023-05-31T01:46:27;9.6;;;4.4;;
80868;SDS011;70295;40.182;44.498;2023-05-31T01:47:29;10.3;;;4.6;;
80868;SDS011;70295;40.182;44.498;2023-05-31T01:48:11;9.7;;;4.8;;
80868;SDS011;70295;40.182;44.498;2023-05-31T01:49:10;11.2;;;4.7;;
80868;SDS011;70295;40.182;44.498;2023-05-31T01:52:03;9.1;;;4.4;;
80868;SDS011;70295;40.182;44.498;2023-05-31T01:53:54;10.8;;;5.1;;
80868;SDS011;70295;40.182;44.498;2023-05-31T01:54:53;10.4;;;5.1;;
80868;SDS011;70295;40.182;44.498;2023-05-31T01:55:54;10.7;;;5.6;;
80868;SDS011;70295;40.182;44.498;2023-05-31T01:56:53;9.4;;;5;;
80868;SDS011;70295;40.182;44.498;2023-05-31T01:57:55;11;;;6.1;;
80868;SDS011;70295;40.182;44.498;2023-05-31T01:58:55;9.8;;;5.9;;
80868;SDS011;70295;40.182;44.498;2023-05-31T01:59:30;12.7;;;5.5;;
80868;SDS011;70295;40.182;44.498;2023-05-31T02:00:30;13.7;;;6.5;;
80868;SDS011;70295;40.182;44.498;2023-05-31T02:01:30;14.1;;;6.6;;
80868;SDS011;70295;40.182;44.498;2023-05-31T02:02:31;11.9;;;5.8;;
80868;SDS011;70295;40.182;44.498;2023-05-31T02:03:30;13.7;;;7;;
80868;SDS011;70295;40.182;44.498;2023-05-31T02:04:29;14.2;;;7.1;;
80868;SDS011;70295;40.182;44.498;2023-05-31T02:05:29;11;;;6.1;;
80868;SDS011;70295;40.182;44.498;2023-05-31T02:06:29;12.5;;;6.4;;
80868;SDS011;70295;40.182;44.498;2023-05-31T02:07:29;12;;;6;;
80868;SDS011;70295;40.182;44.498;2023-05-31T02:08:29;12.3;;;6.3;;
80868;SDS011;70295;40.182;44.498;2023-05-31T02:09:29;13.6;;;6.4;;
80868;SDS011;70295;40.182;44.498;2023-05-31T02:10:29;13.4;;;7.2;;
80868;SDS011;70295;40.182;44.498;2023-05-31T02:11:29;14.3;;;6.6;;
80868;SDS011;70295;40.182;44.498;2023-05-31T02:12:29;12;;;6.2;;
80868;SDS011;70295;40.182;44.498;2023-05-31T02:13:31;12.5;;;6.4;;
80868;SDS011;70295;40.182;44.498;2023-05-31T02:14:30;10.6;;;5.9;;
80868;SDS011;70295;40.182;44.498;2023-05-31T02:15:30;12.2;;;6.1;;
80868;SDS011;70295;40.182;44.498;2023-05-31T02:16:30;12.3;;;6.4;;
80868;SDS011;70295;40.182;44.498;2023-05-31T02:17:30;14;;;6.4;;
80868;SDS011;70295;40.182;44.498;2023-05-31T02:18:24;11.8;;;6.6;;
80868;SDS011;70295;40.182;44.498;2023-05-31T02:22:10;12.1;;;6.1;;
80868;SDS011;70295;40.182;44.498;2023-05-31T02:23:10;11.9;;;6.5;;
80868;SDS011;70295;40.182;44.498;2023-05-31T02:24:10;14.2;;;6.8;;
80868;SDS011;70295;40.182;44.498;2023-05-31T02:25:13;11.4;;;6.2;;
80868;SDS011;70295;40.182;44.498;2023-05-31T02:27:05;10.8;;;6;;
80868;SDS011;70295;40.182;44.498;2023-05-31T02:28:05;13.8;;;5.8;;
80868;SDS011;70295;40.182;44.498;2023-05-31T02:29:05;11.1;;;6.4;;
80868;SDS011;70295;40.182;44.498;2023-05-31T02:30:06;12.7;;;6.4;;
80868;SDS011;70295;40.182;44.498;2023-05-31T02:31:42;10.9;;;6.2;;
80868;SDS011;70295;40.182;44.498;2023-05-31T02:32:43;11.5;;;5.5;;
80868;SDS011;70295;40.182;44.498;2023-05-31T02:33:43;12.5;;;6.1;;
80868;SDS011;70295;40.182;44.498;2023-05-31T02:34:43;11.4;;;5.6;;
80868;SDS011;70295;40.182;44.498;2023-05-31T02:35:42;14.1;;;6.6;;
80868;SDS011;70295;40.182;44.498;2023-05-31T02:36:42;13.2;;;6.1;;
80868;SDS011;70295;40.182;44.498;2023-05-31T02:37:42;9.5;;;5.6;;
80868;SDS011;70295;40.182;44.498;2023-05-31T02:38:29;13;;;5.8;;
80868;SDS011;70295;40.182;44.498;2023-05-31T02:39:29;13.6;;;6.2;;
80868;SDS011;70295;40.182;44.498;2023-05-31T02:40:29;11;;;5.9;;
80868;SDS011;70295;40.182;44.498;2023-05-31T02:41:29;9.8;;;5.9;;
80868;SDS011;70295;40.182;44.498;2023-05-31T02:42:29;11.7;;;6.1;;
80868;SDS011;70295;40.182;44.498;2023-05-31T02:43:28;14;;;5.7;;
80868;SDS011;70295;40.182;44.498;2023-05-31T02:44:28;14.2;;;6.1;;
80868;SDS011;70295;40.182;44.498;2023-05-31T02:45:28;12.5;;;6.7;;
80868;SDS011;70295;40.182;44.498;2023-05-31T02:46:28;11.7;;;6.1;;
80868;SDS011;70295;40.182;44.498;2023-05-31T02:47:28;13.6;;;6.3;;
80868;SDS011;70295;40.182;44.498;2023-05-31T02:48:28;10.2;;;5.6;;
80868;SDS011;70295;40.182;44.498;2023-05-31T02:49:28;10.8;;;5.3;;
80868;SDS011;70295;40.182;44.498;2023-05-31T02:50:28;9.2;;;5.7;;
80868;SDS011;70295;40.182;44.498;2023-05-31T02:51:28;11.4;;;6;;
80868;SDS011;70295;40.182;44.498;2023-05-31T02:52:28;9.7;;;5.2;;
80868;SDS011;70295;40.182;44.498;2023-05-31T02:53:28;10.3;;;5.4;;
80868;SDS011;70295;40.182;44.498;2023-05-31T02:54:28;8.7;;;5.3;;
80868;SDS011;70295;40.182;44.498;2023-05-31T02:55:28;10.8;;;5.5;;
80868;SDS011;70295;40.182;44.498;2023-05-31T02:56:28;12.6;;;6.1;;
80868;SDS011;70295;40.182;44.498;2023-05-31T02:57:28;11.1;;;5.6;;
80868;SDS011;70295;40.182;44.498;2023-05-31T02:58:28;12.2;;;5.4;;
80868;SDS011;70295;40.182;44.498;2023-05-31T02:59:28;11.3;;;5.4;;
80868;SDS011;70295;40.182;44.498;2023-05-31T03:00:28;9.4;;;5.8;;
80868;SDS011;70295;40.182;44.498;2023-05-31T03:01:28;11.2;;;5.3;;
80868;SDS011;70295;40.182;44.498;2023-05-31T03:02:28;10.1;;;5.5;;
80868;SDS011;70295;40.182;44.498;2023-05-31T03:03:28;10.5;;;5.8;;
80868;SDS011;70295;40.182;44.498;2023-05-31T03:04:28;10;;;5.9;;
80868;SDS011;70295;40.182;44.498;2023-05-31T03:05:28;11.6;;;5.6;;
80868;SDS011;70295;40.182;44.498;2023-05-31T03:06:28;10.3;;;5.9;;
80868;SDS011;70295;40.182;44.498;2023-05-31T03:07:28;10.9;;;6.1;;
80868;SDS011;70295;40.182;44.498;2023-05-31T03:08:28;9.1;;;5.5;;
80868;SDS011;70295;40.182;44.498;2023-05-31T03:09:28;10.5;;;6.1;;
80868;SDS011;70295;40.182;44.498;2023-05-31T03:10:28;10.7;;;5.5;;
80868;SDS011;70295;40.182;44.498;2023-05-31T03:11:28;10.8;;;5.6;;
80868;SDS011;70295;40.182;44.498;2023-05-31T03:12:28;11;;;5.8;;
80868;SDS011;70295;40.182;44.498;2023-05-31T03:13:28;10.3;;;5.9;;
80868;SDS011;70295;40.182;44.498;2023-05-31T03:14:28;11;;;5.9;;
80868;SDS011;70295;40.182;44.498;2023-05-31T03:15:28;12.1;;;6.1;;
80868;SDS011;70295;40.182;44.498;2023-05-31T03:16:28;13.6;;;7.3;;
80868;SDS011;70295;40.182;44.498;2023-05-31T03:17:28;10.6;;;5.8;;
80868;SDS011;70295;40.182;44.498;2023-05-31T03:18:28;9.9;;;5.5;;
80868;SDS011;70295;40.182;44.498;2023-05-31T03:19:28;11.1;;;6.1;;
80868;SDS011;70295;40.182;44.498;2023-05-31T03:20:28;11.1;;;6.1;;
80868;SDS011;70295;40.182;44.498;2023-05-31T03:21:28;12;;;6.1;;
80868;SDS011;70295;40.182;44.498;2023-05-31T03:22:28;10.3;;;6.1;;
80868;SDS011;70295;40.182;44.498;2023-05-31T03:23:28;10.1;;;5.2;;
80868;SDS011;70295;40.182;44.498;2023-05-31T03:24:28;11;;;6.2;;
80868;SDS011;70295;40.182;44.498;2023-05-31T03:25:28;10.5;;;5.8;;
80868;SDS011;70295;40.182;44.498;2023-05-31T03:26:28;11.4;;;5.9;;
80868;SDS011;70295;40.182;44.498;2023-05-31T03:27:28;9.5;;;5.5;;
80868;SDS011;70295;40.182;44.498;2023-05-31T03:28:28;12.2;;;5.7;;
80868;SDS011;70295;40.182;44.498;2023-05-31T03:29:28;11.1;;;5.5;;
80868;SDS011;70295;40.182;44.498;2023-05-31T03:30:28;11.6;;;5;;
80868;SDS011;70295;40.182;44.498;2023-05-31T03:31:28;9.4;;;4.4;;
80868;SDS011;70295;40.182;44.498;2023-05-31T03:33:31;8.7;;;4.7;;
80868;SDS011;70295;40.182;44.498;2023-05-31T03:34:30;9.6;;;4.4;;
80868;SDS011;70295;40.182;44.498;2023-05-31T03:35:31;8.7;;;4.4;;
80868;SDS011;70295;40.182;44.498;2023-05-31T03:36:31;8.2;;;4.3;;
80868;SDS011;70295;40.182;44.498;2023-05-31T03:37:31;8.3;;;4.4;;
80868;SDS011;70295;40.182;44.498;2023-05-31T03:40:15;12.4;;;5.3;;
80868;SDS011;70295;40.182;44.498;2023-05-31T03:41:15;8;;;5.1;;
80868;SDS011;70295;40.182;44.498;2023-05-31T03:42:16;8.4;;;5;;
80868;SDS011;70295;40.182;44.498;2023-05-31T03:43:15;10.1;;;4.7;;
80868;SDS011;70295;40.182;44.498;2023-05-31T03:44:15;10.1;;;5;;
80868;SDS011;70295;40.182;44.498;2023-05-31T03:45:15;10.1;;;4.9;;
80868;SDS011;70295;40.182;44.498;2023-05-31T03:46:15;8.7;;;4.7;;
80868;SDS011;70295;40.182;44.498;2023-05-31T03:47:15;11.4;;;5.4;;
80868;SDS011;70295;40.182;44.498;2023-05-31T03:48:15;8.9;;;5;;
80868;SDS011;70295;40.182;44.498;2023-05-31T03:49:15;9.4;;;5.2;;
80868;SDS011;70295;40.182;44.498;2023-05-31T03:50:15;10;;;5.5;;
80868;SDS011;70295;40.182;44.498;2023-05-31T03:51:16;10.7;;;5.5;;
80868;SDS011;70295;40.182;44.498;2023-05-31T03:52:15;9.7;;;4.6;;
80868;SDS011;70295;40.182;44.498;2023-05-31T03:53:15;10.3;;;5;;
80868;SDS011;70295;40.182;44.498;2023-05-31T03:54:15;9.2;;;4.6;;
80868;SDS011;70295;40.182;44.498;2023-05-31T03:55:15;7.6;;;4.3;;
80868;SDS011;70295;40.182;44.498;2023-05-31T03:56:15;8.4;;;4.4;;
80868;SDS011;70295;40.182;44.498;2023-05-31T03:57:15;9.7;;;4.6;;
80868;SDS011;70295;40.182;44.498;2023-05-31T03:58:15;9.1;;;4.2;;
80868;SDS011;70295;40.182;44.498;2023-05-31T03:59:15;8.5;;;4.5;;
80868;SDS011;70295;40.182;44.498;2023-05-31T04:00:16;8.2;;;3.9;;
80868;SDS011;70295;40.182;44.498;2023-05-31T04:01:15;10;;;4.7;;
80868;SDS011;70295;40.182;44.498;2023-05-31T04:02:15;8.9;;;4;;
80868;SDS011;70295;40.182;44.498;2023-05-31T04:03:15;8.3;;;4.3;;
80868;SDS011;70295;40.182;44.498;2023-05-31T04:04:15;9;;;4.6;;
80868;SDS011;70295;40.182;44.498;2023-05-31T04:05:15;10.1;;;5.1;;
80868;SDS011;70295;40.182;44.498;2023-05-31T04:06:15;9.2;;;4.7;;
80868;SDS011;70295;40.182;44.498;2023-05-31T04:07:15;8;;;4.6;;
80868;SDS011;70295;40.182;44.498;2023-05-31T04:08:15;9.6;;;4.8;;
80868;SDS011;70295;40.182;44.498;2023-05-31T04:09:15;11;;;5;;
80868;SDS011;70295;40.182;44.498;2023-05-31T04:10:15;7.7;;;4.6;;
80868;SDS011;70295;40.182;44.498;2023-05-31T04:11:15;8.7;;;4.2;;
80868;SDS011;70295;40.182;44.498;2023-05-31T04:12:15;8.8;;;4.8;;
80868;SDS011;70295;40.182;44.498;2023-05-31T04:13:15;8.8;;;4.5;;
80868;SDS011;70295;40.182;44.498;2023-05-31T04:14:15;7.1;;;4.3;;
80868;SDS011;70295;40.182;44.498;2023-05-31T04:15:15;11.4;;;4.9;;
80868;SDS011;70295;40.182;44.498;2023-05-31T04:16:15;10.5;;;4.8;;
80868;SDS011;70295;40.182;44.498;2023-05-31T04:17:16;8.6;;;4.3;;
80868;SDS011;70295;40.182;44.498;2023-05-31T04:18:16;9.2;;;4.5;;
80868;SDS011;70295;40.182;44.498;2023-05-31T04:19:16;7.6;;;4.3;;
80868;SDS011;70295;40.182;44.498;2023-05-31T04:20:15;11;;;5.2;;
80868;SDS011;70295;40.182;44.498;2023-05-31T04:21:16;9.8;;;4.3;;
80868;SDS011;70295;40.182;44.498;2023-05-31T04:22:15;10.4;;;4.2;;
80868;SDS011;70295;40.182;44.498;2023-05-31T04:23:17;10;;;4.7;;
80868;SDS011;70295;40.182;44.498;2023-05-31T04:24:15;8.3;;;4.3;;
80868;SDS011;70295;40.182;44.498;2023-05-31T04:25:16;10.3;;;4.6;;
80868;SDS011;70295;40.182;44.498;2023-05-31T04:26:15;8.7;;;4.3;;
80868;SDS011;70295;40.182;44.498;2023-05-31T04:27:16;9.6;;;4.7;;
80868;SDS011;70295;40.182;44.498;2023-05-31T04:28:16;8;;;4.3;;
80868;SDS011;70295;40.182;44.498;2023-05-31T04:29:16;10.2;;;4.6;;
80868;SDS011;70295;40.182;44.498;2023-05-31T04:30:16;9.2;;;4.2;;
80868;SDS011;70295;40.182;44.498;2023-05-31T04:31:16;10.6;;;4.7;;
80868;SDS011;70295;40.182;44.498;2023-05-31T04:32:16;8.8;;;4.9;;
80868;SDS011;70295;40.182;44.498;2023-05-31T04:33:15;12.5;;;4.9;;
80868;SDS011;70295;40.182;44.498;2023-05-31T04:34:16;9.5;;;4.7;;
80868;SDS011;70295;40.182;44.498;2023-05-31T04:35:16;8.5;;;4.7;;
80868;SDS011;70295;40.182;44.498;2023-05-31T04:36:16;10.4;;;5.3;;
80868;SDS011;70295;40.182;44.498;2023-05-31T04:37:15;10.4;;;4.5;;
80868;SDS011;70295;40.182;44.498;2023-05-31T04:38:16;8.8;;;4.3;;
80868;SDS011;70295;40.182;44.498;2023-05-31T04:39:16;9.7;;;4.5;;
80868;SDS011;70295;40.182;44.498;2023-05-31T04:40:15;9.1;;;4.6;;
80868;SDS011;70295;40.182;44.498;2023-05-31T04:41:16;11.3;;;4.8;;
80868;SDS011;70295;40.182;44.498;2023-05-31T04:42:16;11.2;;;4.4;;
80868;SDS011;70295;40.182;44.498;2023-05-31T04:43:15;9.2;;;4.5;;
80868;SDS011;70295;40.182;44.498;2023-05-31T04:44:15;9.4;;;4.5;;
80868;SDS011;70295;40.182;44.498;2023-05-31T04:45:16;11.1;;;4.5;;
80868;SDS011;70295;40.182;44.498;2023-05-31T04:46:15;8.5;;;4.3;;
80868;SDS011;70295;40.182;44.498;2023-05-31T04:47:15;10;;;4.8;;
80868;SDS011;70295;40.182;44.498;2023-05-31T04:48:15;10.1;;;4.2;;
80868;SDS011;70295;40.182;44.498;2023-05-31T04:49:15;11.7;;;5.1;;
80868;SDS011;70295;40.182;44.498;2023-05-31T04:50:15;10.7;;;4.8;;
80868;SDS011;70295;40.182;44.498;2023-05-31T04:51:16;9.1;;;5;;
80868;SDS011;70295;40.182;44.498;2023-05-31T04:52:15;10.8;;;4.3;;
80868;SDS011;70295;40.182;44.498;2023-05-31T04:53:15;10.3;;;4.6;;
80868;SDS011;70295;40.182;44.498;2023-05-31T04:54:15;10.1;;;4.6;;
80868;SDS011;70295;40.182;44.498;2023-05-31T04:55:15;10.9;;;4.4;;
80868;SDS011;70295;40.182;44.498;2023-05-31T04:56:15;10;;;4.3;;
80868;SDS011;70295;40.182;44.498;2023-05-31T04:57:15;9.5;;;4.7;;
80868;SDS011;70295;40.182;44.498;2023-05-31T04:58:15;9.2;;;4.1;;
80868;SDS011;70295;40.182;44.498;2023-05-31T04:59:15;10.1;;;4.1;;
80868;SDS011;70295;40.182;44.498;2023-05-31T05:00:16;8.4;;;3.9;;
80868;SDS011;70295;40.182;44.498;2023-05-31T05:01:15;6.6;;;3.8;;
80868;SDS011;70295;40.182;44.498;2023-05-31T05:02:17;11.5;;;4.4;;
80868;SDS011;70295;40.182;44.498;2023-05-31T05:03:15;8.2;;;3.9;;
80868;SDS011;70295;40.182;44.498;2023-05-31T05:04:15;9.6;;;4.6;;
80868;SDS011;70295;40.182;44.498;2023-05-31T05:05:15;8.6;;;4;;
80868;SDS011;70295;40.182;44.498;2023-05-31T05:06:16;8.9;;;4.4;;
80868;SDS011;70295;40.182;44.498;2023-05-31T05:07:15;7.7;;;3.9;;
80868;SDS011;70295;40.182;44.498;2023-05-31T05:08:15;9.6;;;4.4;;
80868;SDS011;70295;40.182;44.498;2023-05-31T05:09:15;12.2;;;4.5;;
80868;SDS011;70295;40.182;44.498;2023-05-31T05:10:15;11;;;4.2;;
80868;SDS011;70295;40.182;44.498;2023-05-31T05:11:15;11;;;3.8;;
80868;SDS011;70295;40.182;44.498;2023-05-31T05:12:15;11.1;;;5.2;;
80868;SDS011;70295;40.182;44.498;2023-05-31T05:13:15;10;;;4.1;;
80868;SDS011;70295;40.182;44.498;2023-05-31T05:14:15;9.9;;;4.2;;
80868;SDS011;70295;40.182;44.498;2023-05-31T05:15:15;10.1;;;4;;
80868;SDS011;70295;40.182;44.498;2023-05-31T05:16:15;10.1;;;4.3;;
80868;SDS011;70295;40.182;44.498;2023-05-31T05:17:15;10.9;;;4.1;;
80868;SDS011;70295;40.182;44.498;2023-05-31T05:18:15;12.7;;;3.8;;
80868;SDS011;70295;40.182;44.498;2023-05-31T05:19:16;7.1;;;3.8;;
80868;SDS011;70295;40.182;44.498;2023-05-31T05:20:16;9.3;;;3.6;;
80868;SDS011;70295;40.182;44.498;2023-05-31T05:21:15;10.6;;;4;;
80868;SDS011;70295;40.182;44.498;2023-05-31T05:22:16;7.9;;;3.9;;
80868;SDS011;70295;40.182;44.498;2023-05-31T05:23:15;7.5;;;3.4;;
80868;SDS011;70295;40.182;44.498;2023-05-31T05:24:15;9.2;;;3.8;;
80868;SDS011;70295;40.182;44.498;2023-05-31T05:25:15;9.6;;;3.6;;
80868;SDS011;70295;40.182;44.498;2023-05-31T05:26:15;8.9;;;3.5;;
80868;SDS011;70295;40.182;44.498;2023-05-31T05:27:15;8.8;;;4.3;;
80868;SDS011;70295;40.182;44.498;2023-05-31T05:28:15;7.3;;;2.9;;
80868;SDS011;70295;40.182;44.498;2023-05-31T05:29:15;8.2;;;3;;
80868;SDS011;70295;40.182;44.498;2023-05-31T05:30:16;7.5;;;3.1;;
80868;SDS011;70295;40.182;44.498;2023-05-31T05:31:15;5.8;;;2.9;;
80868;SDS011;70295;40.182;44.498;2023-05-31T05:32:15;9;;;3.6;;
80868;SDS011;70295;40.182;44.498;2023-05-31T05:33:15;11;;;3.1;;
80868;SDS011;70295;40.182;44.498;2023-05-31T05:34:15;10.4;;;3.6;;
80868;SDS011;70295;40.182;44.498;2023-05-31T05:35:15;8.2;;;3.2;;
80868;SDS011;70295;40.182;44.498;2023-05-31T05:36:15;9;;;3.9;;
80868;SDS011;70295;40.182;44.498;2023-05-31T05:37:15;9.4;;;3.5;;
80868;SDS011;70295;40.182;44.498;2023-05-31T05:38:15;13.5;;;3.7;;
80868;SDS011;70295;40.182;44.498;2023-05-31T05:39:15;10;;;3.2;;
80868;SDS011;70295;40.182;44.498;2023-05-31T05:40:15;6.4;;;2.9;;
80868;SDS011;70295;40.182;44.498;2023-05-31T05:41:15;9.2;;;3.6;;
80868;SDS011;70295;40.182;44.498;2023-05-31T05:42:15;9.1;;;3.4;;
80868;SDS011;70295;40.182;44.498;2023-05-31T05:43:15;9.9;;;3.4;;
80868;SDS011;70295;40.182;44.498;2023-05-31T05:44:15;10.6;;;4.1;;
80868;SDS011;70295;40.182;44.498;2023-05-31T05:45:16;9.4;;;3.8;;
80868;SDS011;70295;40.182;44.498;2023-05-31T05:46:15;8.5;;;3.3;;
80868;SDS011;70295;40.182;44.498;2023-05-31T05:47:15;9.2;;;3.4;;
80868;SDS011;70295;40.182;44.498;2023-05-31T05:48:15;8.5;;;3.1;;
80868;SDS011;70295;40.182;44.498;2023-05-31T05:49:16;10.4;;;3.8;;
80868;SDS011;70295;40.182;44.498;2023-05-31T05:50:16;12.1;;;3.8;;
80868;SDS011;70295;40.182;44.498;2023-05-31T05:51:16;9.8;;;3.5;;
80868;SDS011;70295;40.182;44.498;2023-05-31T05:52:16;9.7;;;3.5;;
80868;SDS011;70295;40.182;44.498;2023-05-31T05:53:16;10.8;;;3.7;;
80868;SDS011;70295;40.182;44.498;2023-05-31T05:54:16;9;;;3.9;;
80868;SDS011;70295;40.182;44.498;2023-05-31T05:55:16;9.7;;;3.8;;
80868;SDS011;70295;40.182;44.498;2023-05-31T05:56:16;8.4;;;3.7;;
80868;SDS011;70295;40.182;44.498;2023-05-31T05:57:52;10.7;;;3.8;;
80868;SDS011;70295;40.182;44.498;2023-05-31T05:58:52;9.9;;;3.9;;
80868;SDS011;70295;40.182;44.498;2023-05-31T05:59:52;11.5;;;4.2;;
80868;SDS011;70295;40.182;44.498;2023-05-31T06:00:52;11.5;;;3.7;;
80868;SDS011;70295;40.182;44.498;2023-05-31T06:01:52;9.9;;;3.7;;
80868;SDS011;70295;40.182;44.498;2023-05-31T06:02:52;10.3;;;3.9;;
80868;SDS011;70295;40.182;44.498;2023-05-31T06:03:52;13.9;;;4.2;;
80868;SDS011;70295;40.182;44.498;2023-05-31T06:04:52;12.7;;;3.8;;
80868;SDS011;70295;40.182;44.498;2023-05-31T06:05:52;14.8;;;4.8;;
80868;SDS011;70295;40.182;44.498;2023-05-31T06:06:51;15;;;6.5;;
80868;SDS011;70295;40.182;44.498;2023-05-31T06:07:53;11;;;4.8;;
80868;SDS011;70295;40.182;44.498;2023-05-31T06:08:52;15.5;;;4.7;;
80868;SDS011;70295;40.182;44.498;2023-05-31T06:09:52;52.8;;;8.5;;
80868;SDS011;70295;40.182;44.498;2023-05-31T06:10:52;13.7;;;4.1;;
80868;SDS011;70295;40.182;44.498;2023-05-31T06:11:52;10;;;4.4;;
80868;SDS011;70295;40.182;44.498;2023-05-31T06:12:51;11.4;;;4;;
80868;SDS011;70295;40.182;44.498;2023-05-31T06:13:52;33.5;;;6.2;;
80868;SDS011;70295;40.182;44.498;2023-05-31T06:14:37;8.8;;;3.3;;
80868;SDS011;70295;40.182;44.498;2023-05-31T06:15:36;6.8;;;3.5;;
80868;SDS011;70295;40.182;44.498;2023-05-31T06:16:36;7;;;3.2;;
80868;SDS011;70295;40.182;44.498;2023-05-31T06:17:36;23.7;;;5.6;;
80868;SDS011;70295;40.182;44.498;2023-05-31T06:18:36;16.1;;;4.9;;
80868;SDS011;70295;40.182;44.498;2023-05-31T06:19:36;15.4;;;4.7;;
80868;SDS011;70295;40.182;44.498;2023-05-31T06:20:36;12.5;;;3.8;;
80868;SDS011;70295;40.182;44.498;2023-05-31T06:21:36;17.4;;;4.3;;
80868;SDS011;70295;40.182;44.498;2023-05-31T06:22:36;11.7;;;3.8;;
80868;SDS011;70295;40.182;44.498;2023-05-31T06:23:36;9.3;;;3.6;;
80868;SDS011;70295;40.182;44.498;2023-05-31T06:24:36;11.8;;;3.2;;
80868;SDS011;70295;40.182;44.498;2023-05-31T06:25:36;7.7;;;3;;
80868;SDS011;70295;40.182;44.498;2023-05-31T06:26:36;10.1;;;3.3;;
80868;SDS011;70295;40.182;44.498;2023-05-31T06:27:36;11.1;;;3.3;;
80868;SDS011;70295;40.182;44.498;2023-05-31T06:28:36;7.7;;;2.7;;
80868;SDS011;70295;40.182;44.498;2023-05-31T06:29:36;9.7;;;3.5;;
80868;SDS011;70295;40.182;44.498;2023-05-31T06:30:36;11.5;;;3.2;;
80868;SDS011;70295;40.182;44.498;2023-05-31T06:31:36;11;;;2.9;;
80868;SDS011;70295;40.182;44.498;2023-05-31T06:32:36;9.5;;;3.1;;
80868;SDS011;70295;40.182;44.498;2023-05-31T06:33:36;8.5;;;2.7;;
80868;SDS011;70295;40.182;44.498;2023-05-31T06:34:36;7.5;;;2.9;;